Pagrindinis puslapis
METAR-TAF:

METAR-TAF

Oro uostai :

Schwäbisch Hall, Vokietija

platuma: 49-07-06N, ilguma: 9-47-02E, Aukštis: 398 m

Dabartinis oras

Ataskaita buvo paskelbta 37 minutes, ne 19:50 UTC
Vėjas 5 kt iš Pietų, svyruoja nuo Pietų/Pietryčių ir Vakarų/Pietvakarių
Temperatūra 8°C
Drėgmė 76%
Slėgis 1011 hPa
Matomumas 10 km arba daugiau

METAR: EDTY 271950Z AUTO 19005KT 150V250 9999 // NCD 08/04 Q1011

Laikas: 21:27 (20:27 UTC)

Prognozė

Ataskaita buvo paskelbta 3 valandos ir 27 minutes, ne 17:00 UTC
Prognozė galioja nuo 27 metu 18 UTC su 28 metu 03 UTC
Vėjas 3 kt nuo kintamojo kryptimis
Matomumas 10 km arba daugiau
nėra debesų žemiau 1500 m ir nėra kamuolinių lietaus debesų

TAF: EDTY 271700Z 2718/2803 VRB03KT CAVOK

Orai ataskaitas ir orų prognozės (METAR, TAF).

turimą stotys yra geltonos ir raudonos taškus žemėlapyje.

Perkelti pele per norėdami pamatyti stoties vardą.

Tada spustelėkite, norėdami matyti oro stebėjimo ir prognozės.

Norėdami pakeisti žemėlapį: spustelėkite ant žalios mygtukų su juodo kryžiaus žemyn,; žalią mygtuką su brūkšneliu, jei norite nutolinti; arba žalių rodyklių gretimoms žemėlapius.


METAR-TAF: